Accueil
METAR-TAF:

METAR-TAF

Aéroports :

Plaisance, Italie

latitude: 44-55N, longitude: 009-44E, altitude: 134 m

Observation

Le bulletin a été fait il y a 52 minutes, à 15:55 UTC
Vent 2 kt de est/sud-est
Température 9°C
Humidité 87%
Pression 1016 hPa
Visibilité: 4500 m
Quelques nuages à une hauteur de 6000 ft
brume

METAR: LIMS 271555Z 11002KT 4500 BR FEW060 09/07 Q1016 RMK OVC SCT140 BKN180 VIS MIN 4500 WIND THR30 09002KT GRN

Heure: 17:47 (16:47 UTC)


TAF: absent

Observations et prévisions météorologiques de plus de 4000 aéroports (messages METAR et TAF).

Les stations disponibles sont représentées par des disques jaunes et rouges sur la carte.

Passer la souris dessus pour voir le nom de la station.

Cliquer dessus pour voir les observations et prévisions météorologiques.

Pour changer de carte: cliquez sur les boutons verts avec une croix noire pour zoomer, sur le bouton vert avec un tiret pour effectuer un zoom arrière, ou sur les flèches vertes pour les cartes adjacentes.


METAR-TAF: